Terminal Aerodrome Forecast
Issued by NWS New Orleans/Baton Rouge, LA

Home | Current Version | Previous Version | Text Only | Print | Product List | Glossary On
Versions: 1 2 3 4 5 6 7 8 9 10 11 12 13 14 15 16 17 18 19 20 21 22 23 24 25 26
087
FTUS44 KLIX 290543
TAFNEW
TAF
KNEW 290543Z 2906/3006 VRB03KT P6SM FEW022
     FM291400 21004KT P6SM SCT025 BKN200
     FM291700 VRB03KT P6SM SCT030 BKN150 PROB30 2917/2922 3SM TSRA
      BKN030CB
     FM292200 13009KT P6SM FEW035 BKN150=

USA.gov is the U.S. government's official web portal to all federal, state and local government web resources and services.